sensor_id;sensor_type;location;lat;lon;timestamp;pressure;altitude;pressure_sealevel;temperature;humidity
20009;BME280;10165;42.662;23.260;2023-03-14T00:01:17;94301.81;;;7.17;44.08
20009;BME280;10165;42.662;23.260;2023-03-14T00:03:44;94305.22;;;7.26;44.30
20009;BME280;10165;42.662;23.260;2023-03-14T00:06:11;94301.47;;;7.36;43.82
20009;BME280;10165;42.662;23.260;2023-03-14T00:08:39;94300.84;;;7.30;43.89
20009;BME280;10165;42.662;23.260;2023-03-14T00:11:09;94303.81;;;7.29;44.15
20009;BME280;10165;42.662;23.260;2023-03-14T00:13:36;94297.56;;;7.25;44.05
20009;BME280;10165;42.662;23.260;2023-03-14T00:16:08;94290.72;;;7.24;44.12
20009;BME280;10165;42.662;23.260;2023-03-14T00:18:35;94286.47;;;7.31;44.06
20009;BME280;10165;42.662;23.260;2023-03-14T00:21:04;94290.97;;;6.93;44.96
20009;BME280;10165;42.662;23.260;2023-03-14T00:23:33;94280.31;;;7.01;44.98
20009;BME280;10165;42.662;23.260;2023-03-14T00:26:07;94271.59;;;6.84;45.21
20009;BME280;10165;42.662;23.260;2023-03-14T00:28:35;94265.81;;;6.90;45.04
20009;BME280;10165;42.662;23.260;2023-03-14T00:31:03;94263.00;;;6.87;45.20
20009;BME280;10165;42.662;23.260;2023-03-14T00:33:30;94260.13;;;6.45;46.10
20009;BME280;10165;42.662;23.260;2023-03-14T00:35:58;94260.72;;;6.68;45.62
20009;BME280;10165;42.662;23.260;2023-03-14T00:38:26;94257.81;;;6.44;46.20
20009;BME280;10165;42.662;23.260;2023-03-14T00:40:53;94265.06;;;6.72;45.60
20009;BME280;10165;42.662;23.260;2023-03-14T00:43:21;94250.16;;;6.42;46.44
20009;BME280;10165;42.662;23.260;2023-03-14T00:45:49;94251.22;;;6.41;46.61
20009;BME280;10165;42.662;23.260;2023-03-14T00:48:16;94257.00;;;6.26;46.50
20009;BME280;10165;42.662;23.260;2023-03-14T00:50:43;94258.09;;;6.34;46.35
20009;BME280;10165;42.662;23.260;2023-03-14T00:53:09;94254.38;;;6.00;46.95
20009;BME280;10165;42.662;23.260;2023-03-14T00:55:38;94257.94;;;6.30;45.71
20009;BME280;10165;42.662;23.260;2023-03-14T00:58:06;94252.13;;;5.68;46.65
20009;BME280;10165;42.662;23.260;2023-03-14T01:00:33;94254.06;;;6.19;46.12
20009;BME280;10165;42.662;23.260;2023-03-14T01:03:00;94250.16;;;6.34;45.79
20009;BME280;10165;42.662;23.260;2023-03-14T01:05:27;94241.75;;;6.32;45.68
20009;BME280;10165;42.662;23.260;2023-03-14T01:07:54;94243.44;;;6.28;45.36
20009;BME280;10165;42.662;23.260;2023-03-14T01:10:21;94241.25;;;6.47;44.70
20009;BME280;10165;42.662;23.260;2023-03-14T01:12:48;94240.91;;;6.48;44.67
20009;BME280;10165;42.662;23.260;2023-03-14T01:15:14;94232.50;;;6.46;45.09
20009;BME280;10165;42.662;23.260;2023-03-14T01:17:41;94236.69;;;6.56;44.89
20009;BME280;10165;42.662;23.260;2023-03-14T01:20:10;94224.34;;;6.68;44.96
20009;BME280;10165;42.662;23.260;2023-03-14T01:22:38;94224.06;;;6.53;45.36
20009;BME280;10165;42.662;23.260;2023-03-14T01:25:08;94222.38;;;6.31;46.68
20009;BME280;10165;42.662;23.260;2023-03-14T01:27:35;94224.25;;;6.39;46.20
20009;BME280;10165;42.662;23.260;2023-03-14T01:30:02;94217.53;;;6.33;46.41
20009;BME280;10165;42.662;23.260;2023-03-14T01:32:29;94216.09;;;6.44;45.60
20009;BME280;10165;42.662;23.260;2023-03-14T01:34:56;94209.84;;;6.57;44.21
20009;BME280;10165;42.662;23.260;2023-03-14T01:37:23;94205.53;;;6.36;44.67
20009;BME280;10165;42.662;23.260;2023-03-14T01:39:50;94204.47;;;6.02;45.61
20009;BME280;10165;42.662;23.260;2023-03-14T01:42:17;94209.94;;;5.89;45.64
20009;BME280;10165;42.662;23.260;2023-03-14T01:44:53;94211.16;;;6.00;45.95
20009;BME280;10165;42.662;23.260;2023-03-14T01:47:21;94213.75;;;5.57;47.02
20009;BME280;10165;42.662;23.260;2023-03-14T01:50:05;94209.44;;;5.87;46.49
20009;BME280;10165;42.662;23.260;2023-03-14T01:52:35;94205.75;;;5.22;48.07
20009;BME280;10165;42.662;23.260;2023-03-14T01:55:07;94206.75;;;5.44;47.94
20009;BME280;10165;42.662;23.260;2023-03-14T01:57:47;94203.34;;;5.69;47.35
20009;BME280;10165;42.662;23.260;2023-03-14T02:00:19;94202.91;;;6.01;47.14
20009;BME280;10165;42.662;23.260;2023-03-14T02:02:50;94197.75;;;6.22;46.50
20009;BME280;10165;42.662;23.260;2023-03-14T02:05:20;94201.81;;;6.28;46.52
20009;BME280;10165;42.662;23.260;2023-03-14T02:08:06;94192.78;;;6.12;46.70
20009;BME280;10165;42.662;23.260;2023-03-14T02:10:38;94193.56;;;6.12;47.08
20009;BME280;10165;42.662;23.260;2023-03-14T02:13:06;94179.03;;;6.27;46.88
20009;BME280;10165;42.662;23.260;2023-03-14T02:15:33;94191.34;;;6.32;46.59
20009;BME280;10165;42.662;23.260;2023-03-14T02:18:02;94182.66;;;6.05;47.19
20009;BME280;10165;42.662;23.260;2023-03-14T02:23:36;94187.47;;;6.03;46.85
20009;BME280;10165;42.662;23.260;2023-03-14T02:26:11;94178.88;;;6.06;47.15
20009;BME280;10165;42.662;23.260;2023-03-14T02:28:41;94185.25;;;6.22;46.97
20009;BME280;10165;42.662;23.260;2023-03-14T02:31:08;94186.69;;;6.20;46.61
20009;BME280;10165;42.662;23.260;2023-03-14T02:33:37;94194.09;;;5.41;47.81
20009;BME280;10165;42.662;23.260;2023-03-14T02:36:07;94203.28;;;4.78;49.86
20009;BME280;10165;42.662;23.260;2023-03-14T02:38:58;94201.97;;;5.06;50.19
20009;BME280;10165;42.662;23.260;2023-03-14T02:41:30;94188.63;;;5.37;49.16
20009;BME280;10165;42.662;23.260;2023-03-14T02:43:57;94199.13;;;5.68;48.73
20009;BME280;10165;42.662;23.260;2023-03-14T02:46:23;94201.44;;;5.52;48.64
20009;BME280;10165;42.662;23.260;2023-03-14T02:51:20;94184.63;;;5.57;48.43
20009;BME280;10165;42.662;23.260;2023-03-14T02:53:47;94191.50;;;5.66;48.48
20009;BME280;10165;42.662;23.260;2023-03-14T02:56:14;94187.28;;;5.74;48.15
20009;BME280;10165;42.662;23.260;2023-03-14T02:58:40;94188.84;;;5.75;47.38
20009;BME280;10165;42.662;23.260;2023-03-14T03:01:07;94191.19;;;5.59;47.67
20009;BME280;10165;42.662;23.260;2023-03-14T03:03:34;94192.56;;;5.57;47.68
20009;BME280;10165;42.662;23.260;2023-03-14T03:06:01;94197.03;;;5.22;48.37
20009;BME280;10165;42.662;23.260;2023-03-14T03:08:28;94188.03;;;5.32;48.83
20009;BME280;10165;42.662;23.260;2023-03-14T03:10:57;94193.50;;;5.44;48.60
20009;BME280;10165;42.662;23.260;2023-03-14T03:13:24;94197.72;;;4.57;50.26
20009;BME280;10165;42.662;23.260;2023-03-14T03:15:50;94200.31;;;4.49;51.20
20009;BME280;10165;42.662;23.260;2023-03-14T03:18:17;94189.22;;;4.69;51.11
20009;BME280;10165;42.662;23.260;2023-03-14T03:20:44;94197.78;;;5.14;49.73
20009;BME280;10165;42.662;23.260;2023-03-14T03:23:12;94193.16;;;4.80;50.93
20009;BME280;10165;42.662;23.260;2023-03-14T03:25:39;94192.38;;;4.79;51.29
20009;BME280;10165;42.662;23.260;2023-03-14T03:28:06;94191.88;;;5.08;50.61
20009;BME280;10165;42.662;23.260;2023-03-14T03:30:38;94191.25;;;5.11;50.55
20009;BME280;10165;42.662;23.260;2023-03-14T03:33:05;94185.53;;;5.35;49.98
20009;BME280;10165;42.662;23.260;2023-03-14T03:35:32;94188.03;;;5.40;50.09
20009;BME280;10165;42.662;23.260;2023-03-14T03:37:59;94186.47;;;5.39;49.78
20009;BME280;10165;42.662;23.260;2023-03-14T03:40:26;94193.25;;;5.14;49.63
20009;BME280;10165;42.662;23.260;2023-03-14T03:42:53;94192.94;;;5.07;50.04
20009;BME280;10165;42.662;23.260;2023-03-14T03:45:20;94188.25;;;5.04;50.47
20009;BME280;10165;42.662;23.260;2023-03-14T03:47:46;94192.75;;;4.95;50.43
20009;BME280;10165;42.662;23.260;2023-03-14T03:50:13;94207.19;;;4.50;51.09
20009;BME280;10165;42.662;23.260;2023-03-14T03:52:39;94212.97;;;4.60;51.04
20009;BME280;10165;42.662;23.260;2023-03-14T03:55:06;94205.81;;;4.52;51.43
20009;BME280;10165;42.662;23.260;2023-03-14T03:57:33;94205.03;;;4.91;51.24
20009;BME280;10165;42.662;23.260;2023-03-14T04:00:00;94207.44;;;5.18;50.56
20009;BME280;10165;42.662;23.260;2023-03-14T04:02:27;94209.19;;;4.75;51.29
20009;BME280;10165;42.662;23.260;2023-03-14T04:04:54;94198.44;;;4.41;52.37
20009;BME280;10165;42.662;23.260;2023-03-14T04:07:21;94199.47;;;4.62;51.92
20009;BME280;10165;42.662;23.260;2023-03-14T04:09:47;94199.50;;;4.70;52.44
20009;BME280;10165;42.662;23.260;2023-03-14T04:12:14;94200.59;;;4.69;52.33
20009;BME280;10165;42.662;23.260;2023-03-14T04:14:40;94207.13;;;5.11;51.39
20009;BME280;10165;42.662;23.260;2023-03-14T04:17:07;94185.50;;;5.26;50.87
20009;BME280;10165;42.662;23.260;2023-03-14T04:19:34;94189.72;;;5.27;50.50
20009;BME280;10165;42.662;23.260;2023-03-14T04:22:02;94188.38;;;5.47;50.32
20009;BME280;10165;42.662;23.260;2023-03-14T04:24:28;94174.78;;;5.49;50.44
20009;BME280;10165;42.662;23.260;2023-03-14T04:26:55;94173.84;;;5.45;50.11
20009;BME280;10165;42.662;23.260;2023-03-14T04:29:22;94165.28;;;5.56;49.96
20009;BME280;10165;42.662;23.260;2023-03-14T04:31:48;94166.22;;;5.60;49.56
20009;BME280;10165;42.662;23.260;2023-03-14T04:34:15;94171.53;;;5.60;49.73
20009;BME280;10165;42.662;23.260;2023-03-14T04:36:42;94166.06;;;5.40;49.23
20009;BME280;10165;42.662;23.260;2023-03-14T04:39:08;94165.94;;;4.49;50.88
20009;BME280;10165;42.662;23.260;2023-03-14T04:41:35;94163.06;;;4.28;52.71
20009;BME280;10165;42.662;23.260;2023-03-14T04:44:02;94163.81;;;4.59;51.86
20009;BME280;10165;42.662;23.260;2023-03-14T04:46:29;94155.22;;;4.93;51.22
20009;BME280;10165;42.662;23.260;2023-03-14T04:48:55;94146.53;;;5.10;51.02
20009;BME280;10165;42.662;23.260;2023-03-14T04:51:23;94150.47;;;5.21;50.67
20009;BME280;10165;42.662;23.260;2023-03-14T04:53:54;94145.16;;;5.29;50.19
20009;BME280;10165;42.662;23.260;2023-03-14T04:56:21;94144.22;;;5.08;51.01
20009;BME280;10165;42.662;23.260;2023-03-14T04:58:48;94144.22;;;5.17;50.74
20009;BME280;10165;42.662;23.260;2023-03-14T05:01:14;94141.91;;;5.24;50.82
20009;BME280;10165;42.662;23.260;2023-03-14T05:03:41;94137.81;;;5.18;50.80
20009;BME280;10165;42.662;23.260;2023-03-14T05:06:08;94136.25;;;5.00;50.85
20009;BME280;10165;42.662;23.260;2023-03-14T05:08:35;94139.09;;;4.24;52.86
20009;BME280;10165;42.662;23.260;2023-03-14T05:11:01;94157.16;;;4.31;53.31
20009;BME280;10165;42.662;23.260;2023-03-14T05:13:29;94153.31;;;4.46;53.26
20009;BME280;10165;42.662;23.260;2023-03-14T05:16:04;94149.81;;;3.97;53.73
20009;BME280;10165;42.662;23.260;2023-03-14T05:18:31;94148.03;;;4.46;53.81
20009;BME280;10165;42.662;23.260;2023-03-14T05:20:58;94139.91;;;4.73;53.11
20009;BME280;10165;42.662;23.260;2023-03-14T05:23:25;94145.16;;;5.12;52.07
20009;BME280;10165;42.662;23.260;2023-03-14T05:25:51;94129.91;;;5.09;52.06
20009;BME280;10165;42.662;23.260;2023-03-14T05:28:18;94136.63;;;5.33;51.92
20009;BME280;10165;42.662;23.260;2023-03-14T05:30:45;94133.34;;;5.36;51.66
20009;BME280;10165;42.662;23.260;2023-03-14T05:33:12;94143.94;;;4.70;52.91
20009;BME280;10165;42.662;23.260;2023-03-14T05:35:39;94134.88;;;5.11;52.23
20009;BME280;10165;42.662;23.260;2023-03-14T05:38:05;94136.16;;;5.48;50.99
20009;BME280;10165;42.662;23.260;2023-03-14T05:40:32;94138.50;;;5.66;50.79
20009;BME280;10165;42.662;23.260;2023-03-14T05:42:59;94140.53;;;5.61;50.59
20009;BME280;10165;42.662;23.260;2023-03-14T05:45:26;94143.63;;;5.37;50.71
20009;BME280;10165;42.662;23.260;2023-03-14T05:47:52;94141.75;;;5.38;51.37
20009;BME280;10165;42.662;23.260;2023-03-14T05:50:19;94132.41;;;5.49;50.73
20009;BME280;10165;42.662;23.260;2023-03-14T05:52:46;94136.31;;;5.60;50.35
20009;BME280;10165;42.662;23.260;2023-03-14T05:55:12;94130.25;;;5.42;50.25
20009;BME280;10165;42.662;23.260;2023-03-14T05:57:39;94141.63;;;5.68;49.79
20009;BME280;10165;42.662;23.260;2023-03-14T06:00:06;94139.09;;;5.29;50.46
20009;BME280;10165;42.662;23.260;2023-03-14T06:02:33;94139.28;;;5.58;50.14
20009;BME280;10165;42.662;23.260;2023-03-14T06:04:59;94137.88;;;5.95;49.47
20009;BME280;10165;42.662;23.260;2023-03-14T06:07:26;94132.56;;;6.12;48.94
20009;BME280;10165;42.662;23.260;2023-03-14T06:09:53;94137.22;;;6.15;49.13
20009;BME280;10165;42.662;23.260;2023-03-14T06:12:19;94129.78;;;6.09;48.97
20009;BME280;10165;42.662;23.260;2023-03-14T06:14:46;94127.72;;;5.71;49.06
20009;BME280;10165;42.662;23.260;2023-03-14T06:17:13;94122.31;;;5.51;49.12
20009;BME280;10165;42.662;23.260;2023-03-14T06:19:39;94126.81;;;5.42;50.13
20009;BME280;10165;42.662;23.260;2023-03-14T06:22:06;94137.09;;;5.69;49.60
20009;BME280;10165;42.662;23.260;2023-03-14T06:24:33;94143.94;;;5.53;49.88
20009;BME280;10165;42.662;23.260;2023-03-14T06:26:59;94147.13;;;4.90;51.39
20009;BME280;10165;42.662;23.260;2023-03-14T06:29:26;94150.19;;;5.57;49.38
20009;BME280;10165;42.662;23.260;2023-03-14T06:31:53;94147.69;;;5.60;49.34
20009;BME280;10165;42.662;23.260;2023-03-14T06:34:19;94148.03;;;5.93;48.14
20009;BME280;10165;42.662;23.260;2023-03-14T06:36:46;94137.72;;;6.09;48.30
20009;BME280;10165;42.662;23.260;2023-03-14T06:39:13;94147.06;;;6.15;47.67
20009;BME280;10165;42.662;23.260;2023-03-14T06:41:39;94138.34;;;5.80;48.05
20009;BME280;10165;42.662;23.260;2023-03-14T06:44:06;94138.06;;;5.90;47.58
20009;BME280;10165;42.662;23.260;2023-03-14T06:46:32;94128.81;;;5.45;49.80
20009;BME280;10165;42.662;23.260;2023-03-14T06:48:59;94126.19;;;6.05;48.56
20009;BME280;10165;42.662;23.260;2023-03-14T06:51:26;94123.22;;;5.72;48.19
20009;BME280;10165;42.662;23.260;2023-03-14T06:53:53;94126.16;;;5.79;48.31
20009;BME280;10165;42.662;23.260;2023-03-14T06:56:19;94114.31;;;6.02;47.53
20009;BME280;10165;42.662;23.260;2023-03-14T06:58:46;94111.69;;;5.76;47.69
20009;BME280;10165;42.662;23.260;2023-03-14T07:01:27;94103.91;;;5.89;47.49
20009;BME280;10165;42.662;23.260;2023-03-14T07:03:54;94103.41;;;6.12;47.37
20009;BME280;10165;42.662;23.260;2023-03-14T07:06:21;94109.41;;;6.77;46.65
20009;BME280;10165;42.662;23.260;2023-03-14T07:08:48;94097.78;;;6.90;46.12
20009;BME280;10165;42.662;23.260;2023-03-14T07:11:14;94102.22;;;6.39;46.84
20009;BME280;10165;42.662;23.260;2023-03-14T07:13:41;94104.25;;;6.71;46.34
20009;BME280;10165;42.662;23.260;2023-03-14T07:16:08;94102.88;;;6.74;45.93
20009;BME280;10165;42.662;23.260;2023-03-14T07:18:35;94112.28;;;6.63;46.41
20009;BME280;10165;42.662;23.260;2023-03-14T07:21:01;94106.16;;;7.00;45.23
20009;BME280;10165;42.662;23.260;2023-03-14T07:23:28;94107.84;;;7.05;45.51
20009;BME280;10165;42.662;23.260;2023-03-14T07:25:56;94106.88;;;7.09;45.67
20009;BME280;10165;42.662;23.260;2023-03-14T07:28:22;94095.34;;;7.05;43.44
20009;BME280;10165;42.662;23.260;2023-03-14T07:30:49;94090.69;;;7.44;42.59
20009;BME280;10165;42.662;23.260;2023-03-14T07:33:16;94087.44;;;7.17;43.47
20009;BME280;10165;42.662;23.260;2023-03-14T07:35:43;94090.19;;;7.30;43.22
20009;BME280;10165;42.662;23.260;2023-03-14T07:38:09;94077.94;;;7.58;42.87
20009;BME280;10165;42.662;23.260;2023-03-14T07:40:36;94084.22;;;6.83;43.15
20009;BME280;10165;42.662;23.260;2023-03-14T07:43:03;94074.25;;;7.30;43.27
20009;BME280;10165;42.662;23.260;2023-03-14T07:45:29;94075.16;;;6.84;43.66
20009;BME280;10165;42.662;23.260;2023-03-14T07:47:56;94074.75;;;7.44;42.75
20009;BME280;10165;42.662;23.260;2023-03-14T07:50:25;94071.66;;;7.95;42.04
20009;BME280;10165;42.662;23.260;2023-03-14T07:52:52;94067.16;;;8.08;41.83
20009;BME280;10165;42.662;23.260;2023-03-14T07:55:18;94071.72;;;7.87;41.93
20009;BME280;10165;42.662;23.260;2023-03-14T07:57:45;94072.28;;;7.18;43.79
20009;BME280;10165;42.662;23.260;2023-03-14T08:00:13;94068.56;;;7.93;42.56
20009;BME280;10165;42.662;23.260;2023-03-14T08:02:41;94063.75;;;8.32;41.76
20009;BME280;10165;42.662;23.260;2023-03-14T08:05:09;94064.47;;;8.53;40.90
20009;BME280;10165;42.662;23.260;2023-03-14T08:07:35;94063.03;;;8.55;40.32
20009;BME280;10165;42.662;23.260;2023-03-14T08:10:03;94071.97;;;7.40;42.21
20009;BME280;10165;42.662;23.260;2023-03-14T08:12:30;94065.31;;;8.33;41.65
20009;BME280;10165;42.662;23.260;2023-03-14T08:14:57;94053.28;;;8.84;40.66
20009;BME280;10165;42.662;23.260;2023-03-14T08:17:26;94052.59;;;8.99;40.40
20009;BME280;10165;42.662;23.260;2023-03-14T08:19:54;94065.16;;;8.62;41.04
20009;BME280;10165;42.662;23.260;2023-03-14T08:22:21;94058.84;;;8.22;41.05
20009;BME280;10165;42.662;23.260;2023-03-14T08:24:47;94065.78;;;8.35;40.61
20009;BME280;10165;42.662;23.260;2023-03-14T08:27:14;94060.81;;;8.94;38.99
20009;BME280;10165;42.662;23.260;2023-03-14T08:29:41;94058.69;;;8.87;39.74
20009;BME280;10165;42.662;23.260;2023-03-14T08:32:08;94057.16;;;8.62;40.23
20009;BME280;10165;42.662;23.260;2023-03-14T08:34:35;94061.47;;;8.91;39.32
20009;BME280;10165;42.662;23.260;2023-03-14T08:37:02;94054.47;;;8.74;39.28
20009;BME280;10165;42.662;23.260;2023-03-14T08:39:36;94047.63;;;8.61;39.84
20009;BME280;10165;42.662;23.260;2023-03-14T08:42:03;94051.44;;;8.27;40.42
20009;BME280;10165;42.662;23.260;2023-03-14T08:44:30;94038.06;;;8.84;40.28
20009;BME280;10165;42.662;23.260;2023-03-14T08:46:57;94035.28;;;8.93;40.15
20009;BME280;10165;42.662;23.260;2023-03-14T08:49:24;94036.63;;;7.93;41.81
20009;BME280;10165;42.662;23.260;2023-03-14T08:51:50;94026.53;;;8.56;41.56
20009;BME280;10165;42.662;23.260;2023-03-14T08:54:17;94021.50;;;9.03;41.00
20009;BME280;10165;42.662;23.260;2023-03-14T08:56:45;94027.19;;;8.41;41.30
20009;BME280;10165;42.662;23.260;2023-03-14T08:59:11;94016.28;;;9.06;40.35
20009;BME280;10165;42.662;23.260;2023-03-14T09:01:38;94009.81;;;9.20;40.11
20009;BME280;10165;42.662;23.260;2023-03-14T09:04:04;94001.81;;;9.20;39.68
20009;BME280;10165;42.662;23.260;2023-03-14T09:06:31;93989.22;;;9.60;40.12
20009;BME280;10165;42.662;23.260;2023-03-14T09:08:58;93992.09;;;9.67;39.23
20009;BME280;10165;42.662;23.260;2023-03-14T09:11:24;93977.69;;;9.56;38.00
20009;BME280;10165;42.662;23.260;2023-03-14T09:13:51;93978.66;;;9.36;38.42
20009;BME280;10165;42.662;23.260;2023-03-14T09:16:18;93978.38;;;10.12;37.58
20009;BME280;10165;42.662;23.260;2023-03-14T09:18:44;93977.88;;;10.06;37.23
20009;BME280;10165;42.662;23.260;2023-03-14T09:21:11;93971.16;;;10.44;37.16
20009;BME280;10165;42.662;23.260;2023-03-14T09:23:38;93965.13;;;10.31;36.83
20009;BME280;10165;42.662;23.260;2023-03-14T09:26:06;93954.88;;;10.02;36.77
20009;BME280;10165;42.662;23.260;2023-03-14T09:28:33;93961.44;;;10.20;36.17
20009;BME280;10165;42.662;23.260;2023-03-14T09:31:10;93954.97;;;10.52;36.00
20009;BME280;10165;42.662;23.260;2023-03-14T09:33:38;93956.88;;;10.87;35.39
20009;BME280;10165;42.662;23.260;2023-03-14T09:36:06;93943.19;;;10.88;35.12
20009;BME280;10165;42.662;23.260;2023-03-14T09:38:34;93948.69;;;10.14;37.49
20009;BME280;10165;42.662;23.260;2023-03-14T09:41:03;93942.19;;;10.27;36.46
20009;BME280;10165;42.662;23.260;2023-03-14T09:43:36;93931.44;;;10.58;35.52
20009;BME280;10165;42.662;23.260;2023-03-14T09:46:03;93927.91;;;10.54;36.76
20009;BME280;10165;42.662;23.260;2023-03-14T09:48:33;93927.16;;;10.53;35.67
20009;BME280;10165;42.662;23.260;2023-03-14T09:51:05;93926.06;;;10.07;36.12
20009;BME280;10165;42.662;23.260;2023-03-14T09:53:41;93905.38;;;10.36;35.43
20009;BME280;10165;42.662;23.260;2023-03-14T09:56:29;93907.31;;;10.89;35.07
20009;BME280;10165;42.662;23.260;2023-03-14T09:59:00;93901.97;;;10.89;35.15
20009;BME280;10165;42.662;23.260;2023-03-14T10:01:30;93895.22;;;11.15;34.88
20009;BME280;10165;42.662;23.260;2023-03-14T10:04:05;93896.47;;;11.40;33.67
20009;BME280;10165;42.662;23.260;2023-03-14T10:06:33;93893.47;;;11.64;33.14
20009;BME280;10165;42.662;23.260;2023-03-14T10:09:02;93887.22;;;11.98;33.20
20009;BME280;10165;42.662;23.260;2023-03-14T10:11:29;93882.03;;;11.86;32.99
20009;BME280;10165;42.662;23.260;2023-03-14T10:14:09;93878.22;;;11.23;33.93
20009;BME280;10165;42.662;23.260;2023-03-14T10:16:45;93869.41;;;11.22;34.66
20009;BME280;10165;42.662;23.260;2023-03-14T10:19:14;93855.00;;;12.18;34.88
20009;BME280;10165;42.662;23.260;2023-03-14T10:21:43;93848.19;;;11.75;34.07
20009;BME280;10165;42.662;23.260;2023-03-14T10:24:27;93851.41;;;11.61;33.42
20009;BME280;10165;42.662;23.260;2023-03-14T10:26:59;93850.22;;;11.39;34.45
20009;BME280;10165;42.662;23.260;2023-03-14T10:29:32;93832.53;;;11.54;34.34
20009;BME280;10165;42.662;23.260;2023-03-14T10:32:05;93835.16;;;11.09;34.95
20009;BME280;10165;42.662;23.260;2023-03-14T10:34:36;93826.69;;;11.26;34.10
20009;BME280;10165;42.662;23.260;2023-03-14T10:40:03;93816.38;;;11.47;34.18
20009;BME280;10165;42.662;23.260;2023-03-14T10:42:34;93794.47;;;12.10;33.50
20009;BME280;10165;42.662;23.260;2023-03-14T10:45:24;93793.19;;;12.89;33.15
20009;BME280;10165;42.662;23.260;2023-03-14T10:47:53;93797.94;;;12.70;33.00
20009;BME280;10165;42.662;23.260;2023-03-14T10:50:31;93783.44;;;12.15;33.18
20009;BME280;10165;42.662;23.260;2023-03-14T10:53:01;93771.28;;;12.51;32.88
20009;BME280;10165;42.662;23.260;2023-03-14T10:55:42;93771.41;;;12.61;33.28
20009;BME280;10165;42.662;23.260;2023-03-14T11:00:56;93752.59;;;12.87;32.60
20009;BME280;10165;42.662;23.260;2023-03-14T11:03:26;93743.03;;;13.27;32.42
20009;BME280;10165;42.662;23.260;2023-03-14T11:06:17;93746.44;;;13.20;32.72
20009;BME280;10165;42.662;23.260;2023-03-14T11:08:57;93740.16;;;12.72;32.61
20009;BME280;10165;42.662;23.260;2023-03-14T11:11:32;93743.28;;;12.78;32.85
20009;BME280;10165;42.662;23.260;2023-03-14T11:21:57;93710.75;;;12.79;33.39
20009;BME280;10165;42.662;23.260;2023-03-14T11:27:43;93693.78;;;13.49;32.34
20009;BME280;10165;42.662;23.260;2023-03-14T11:30:39;93682.16;;;13.31;32.26
20009;BME280;10165;42.662;23.260;2023-03-14T11:33:14;93681.16;;;13.53;32.38
20009;BME280;10165;42.662;23.260;2023-03-14T11:35:47;93680.69;;;13.95;32.20
20009;BME280;10165;42.662;23.260;2023-03-14T11:38:46;93683.47;;;13.51;31.94
20009;BME280;10165;42.662;23.260;2023-03-14T11:41:18;93668.28;;;13.76;32.17
20009;BME280;10165;42.662;23.260;2023-03-14T11:43:54;93660.09;;;14.24;31.87
20009;BME280;10165;42.662;23.260;2023-03-14T11:46:39;93663.53;;;13.49;32.08
20009;BME280;10165;42.662;23.260;2023-03-14T11:49:34;93661.50;;;14.00;31.72
20009;BME280;10165;42.662;23.260;2023-03-14T11:54:56;93646.50;;;13.92;31.90
20009;BME280;10165;42.662;23.260;2023-03-14T11:57:24;93650.69;;;13.82;32.83
20009;BME280;10165;42.662;23.260;2023-03-14T12:05:31;93614.44;;;14.24;31.43
20009;BME280;10165;42.662;23.260;2023-03-14T12:10:43;93602.69;;;14.81;31.24
20009;BME280;10165;42.662;23.260;2023-03-14T12:13:13;93599.59;;;14.69;31.47
20009;BME280;10165;42.662;23.260;2023-03-14T12:15:46;93599.63;;;15.18;30.99
20009;BME280;10165;42.662;23.260;2023-03-14T12:21:01;93595.94;;;14.05;31.91
20009;BME280;10165;42.662;23.260;2023-03-14T12:28:42;93570.41;;;15.24;30.69
20009;BME280;10165;42.662;23.260;2023-03-14T12:42:36;93550.41;;;14.40;30.74
20009;BME280;10165;42.662;23.260;2023-03-14T12:45:22;93548.53;;;14.83;30.04
20009;BME280;10165;42.662;23.260;2023-03-14T12:50:43;93524.22;;;15.64;29.90
20009;BME280;10165;42.662;23.260;2023-03-14T12:58:35;93516.75;;;16.00;28.96
20009;BME280;10165;42.662;23.260;2023-03-14T13:01:06;93520.81;;;15.39;29.52
20009;BME280;10165;42.662;23.260;2023-03-14T13:03:47;93514.91;;;15.83;28.59
20009;BME280;10165;42.662;23.260;2023-03-14T13:12:10;93504.31;;;15.23;29.44
20009;BME280;10165;42.662;23.260;2023-03-14T13:14:43;93489.53;;;15.81;28.82
20009;BME280;10165;42.662;23.260;2023-03-14T13:17:12;93491.47;;;15.76;28.56
20009;BME280;10165;42.662;23.260;2023-03-14T13:20:05;93484.75;;;15.08;29.38
20009;BME280;10165;42.662;23.260;2023-03-14T13:22:36;93482.38;;;15.35;29.01
20009;BME280;10165;42.662;23.260;2023-03-14T13:25:09;93471.34;;;16.02;28.48
20009;BME280;10165;42.662;23.260;2023-03-14T13:27:36;93470.78;;;15.63;28.43
20009;BME280;10165;42.662;23.260;2023-03-14T13:32:47;93458.97;;;15.25;29.22
20009;BME280;10165;42.662;23.260;2023-03-14T13:35:26;93449.41;;;15.10;29.26
20009;BME280;10165;42.662;23.260;2023-03-14T13:37:56;93443.88;;;15.45;29.23
20009;BME280;10165;42.662;23.260;2023-03-14T13:40:37;93451.09;;;15.76;28.58
20009;BME280;10165;42.662;23.260;2023-03-14T13:43:11;93432.28;;;16.32;28.46
20009;BME280;10165;42.662;23.260;2023-03-14T13:45:56;93430.72;;;16.34;28.09
20009;BME280;10165;42.662;23.260;2023-03-14T13:48:29;93423.53;;;16.68;28.02
20009;BME280;10165;42.662;23.260;2023-03-14T13:51:03;93419.81;;;15.97;27.35
20009;BME280;10165;42.662;23.260;2023-03-14T13:53:32;93418.81;;;15.69;27.91
20009;BME280;10165;42.662;23.260;2023-03-14T13:56:02;93407.66;;;15.74;28.60
20009;BME280;10165;42.662;23.260;2023-03-14T13:58:30;93406.53;;;16.27;27.66
20009;BME280;10165;42.662;23.260;2023-03-14T14:01:04;93401.28;;;15.26;28.50
20009;BME280;10165;42.662;23.260;2023-03-14T14:03:34;93390.09;;;16.11;27.86
20009;BME280;10165;42.662;23.260;2023-03-14T14:06:03;93384.94;;;16.75;27.05
20009;BME280;10165;42.662;23.260;2023-03-14T14:08:33;93387.09;;;15.95;27.45
20009;BME280;10165;42.662;23.260;2023-03-14T14:11:03;93384.06;;;15.93;27.82
20009;BME280;10165;42.662;23.260;2023-03-14T14:13:33;93376.22;;;15.54;28.48
20009;BME280;10165;42.662;23.260;2023-03-14T14:16:02;93369.88;;;16.33;27.92
20009;BME280;10165;42.662;23.260;2023-03-14T14:18:31;93365.81;;;16.62;27.54